VG02 weather

Innsbrook Technical Center Heliport
Richmond, Virginia, United States

Public forecast

Using degrees Fahrenheit for public forecast. Weather courtesy of forecast.io.

Closest aviation weather report (METAR) to Innsbrook Technical Center Heliport

Closest report is Hanover County Municipal Airport, 7.6 nm (14.2 km) ENE. Retrieved 2019/10/18 11:54 UTC (15 minutes ago):

KOFP 181154Z AUTO 00000KT 10SM CLR 04/02 A2999 RMK AO2 SLP156 T00390017 10050 20028 51020

Closest aviation forecast (TAF) to Innsbrook Technical Center Heliport

Closest forecast is Richmond International Airport, 15.4 nm (28.5 km) SE. Retrieved 2019/10/18 12:22 UTC (0 seconds ago):

TAF KRIC 181120Z 1812/1912 29005KT P6SM FEW040 FM181800 32007KT P6SM SKC FM190300 VRB03KT P6SM SKC